Jolanda — V2PH5 — position and weather

sailwx.info

Track history (hours):
 
Tides and Currents Weather Stations Pressure Air Temp Water Temp Dewpoint Dewpoint Depression Visibility Wind Speed Wind Dir Waves Ship Positions

Jolanda

Last reported at 2018-Feb-23 21:15 UTC. Time now 2018-Jun-23 19:48 UTC.
Position N 17°01' W 061°46'.
Warning: this ship's position is months out of date.

Length 58 m; draft 2.4 m.

Type: Cargo ship. MMSI: 304011000.

Date/timePositionNaut miles runAvg speedWind from/ knotsBaromVisibWave heightAir tempDewpointWater temp
2018-Feb-23 21:15N 17°01' W 061°46'0 0.0
2018-Feb-23 21:00N 17°01' W 061°46'0 0.0
2018-Feb-23 20:30N 17°01' W 061°46'0 0.0
2018-Feb-23 20:00N 17°01' W 061°46'0 0.0
2018-Feb-23 19:30N 17°01' W 061°46'0 0.0
2018-Feb-23 19:00N 17°01' W 061°46'0 0.0
2018-Feb-23 18:30N 17°01' W 061°46'0 0.0
2018-Feb-23 18:00N 17°01' W 061°46'0 0.0
2018-Feb-23 17:30N 17°01' W 061°46'0 0.0
2018-Feb-23 17:00N 17°01' W 061°46'0 0.0
2018-Feb-23 16:30N 17°01' W 061°46'0 0.0
2018-Feb-23 16:00N 17°01' W 061°46'0 0.0
2018-Feb-23 15:12N 17°01' W 061°46'0 0.6
2018-Feb-23 15:00N 17°01' W 061°46'1 2.4
2018-Feb-23 14:30N 16°60' W 061°46'2 4.8
2018-Feb-23 14:00N 16°60' W 061°49'22 1.3
2018-Feb-22 21:49N 17°21' W 061°42'3 8.5
2018-Feb-22 21:29N 17°18' W 061°41'4 8.4
2018-Feb-22 20:59N 17°15' W 061°39'4 8.5
2018-Feb-22 20:30N 17°11' W 061°36'  
2018-Feb-20 15:06N 17°55' W 063°05'1 6.0
2018-Feb-20 14:59N 17°55' W 063°05'3 6.2
2018-Feb-20 14:27N 17°56' W 063°09'3 5.4
2018-Feb-20 13:56N 17°57' W 063°11'74 5.3
2018-Feb-19 23:55N 17°15' W 062°07'21 3.9
2018-Feb-19 18:26N 17°15' W 061°45'3 8.1
2018-Feb-19 18:00N 17°12' W 061°43'4 8.3
2018-Feb-19 17:30N 17°08' W 061°41'4 8.2
2018-Feb-19 16:59N 17°04' W 061°39'3 5.2
2018-Feb-19 16:27N 17°02' W 061°41'2 4.3
2018-Feb-19 16:00N 17°00' W 061°42'2 3.7
2018-Feb-19 15:28N 16°59' W 061°44'2 3.8
2018-Feb-19 15:01N 16°59' W 061°46'1 1.1
2018-Feb-19 14:31N 16°60' W 061°46'1 1.1
2018-Feb-19 13:57N 17°00' W 061°47'1 1.5
2018-Feb-19 13:28N 17°01' W 061°46'0 0.0
2018-Feb-19 12:58N 17°01' W 061°46'0 0.0
2018-Feb-19 12:28N 17°01' W 061°46'0 0.0
2018-Feb-18 20:12N 17°01' W 061°46'0 0.1
2018-Feb-18 20:00N 17°01' W 061°46'0 0.9
2018-Feb-18 19:30N 17°01' W 061°47'2 4.9
2018-Feb-18 19:00N 16°59' W 061°49'1 2.1
2018-Feb-18 18:30N 16°58' W 061°49'3 5.2
2018-Feb-18 18:00N 16°58' W 061°46'2 3.1
2018-Feb-18 17:30N 16°60' W 061°47'1 1.5
2018-Feb-18 16:58N 17°01' W 061°46'0 0.0
2018-Feb-18 16:28N 17°01' W 061°46'0 0.0
2018-Feb-18 13:40N 17°01' W 061°46'0 0.0
2018-Feb-18 13:28N 17°01' W 061°46'0 0.0
2018-Feb-18 12:58N 17°01' W 061°46'0 0.0
2018-Feb-18 12:28N 17°01' W 061°46'0 0.0
2018-Feb-18 11:58N 17°01' W 061°46'0 0.0
2018-Feb-18 11:28N 17°01' W 061°46'0 0.0
2018-Feb-18 10:58N 17°01' W 061°46'0 0.0
2018-Feb-18 10:28N 17°01' W 061°46'0 0.0
2018-Feb-18 09:58N 17°01' W 061°46'0 0.0
2018-Feb-18 09:25N 17°01' W 061°46'0 0.0
2018-Feb-18 08:58N 17°01' W 061°46'0 0.0
2018-Feb-18 08:28N 17°01' W 061°46'0 0.0
2018-Feb-18 07:58N 17°01' W 061°46'0 0.0
2018-Feb-18 07:28N 17°01' W 061°46'0 0.0
2018-Feb-18 06:58N 17°01' W 061°46'0 0.0
2018-Feb-18 06:28N 17°01' W 061°46'0 0.0
2018-Feb-18 05:58N 17°01' W 061°46'0 0.0
2018-Feb-18 05:28N 17°01' W 061°46'0 0.0
2018-Feb-18 04:58N 17°01' W 061°46'0 0.0
2018-Feb-18 04:28N 17°01' W 061°46'0 0.0
2018-Feb-18 03:58N 17°01' W 061°46'0 0.0
2018-Feb-18 03:28N 17°01' W 061°46'0 0.0
2018-Feb-18 02:58N 17°01' W 061°46'0 0.0
2018-Feb-18 02:28N 17°01' W 061°46'0 0.0
2018-Feb-18 01:58N 17°01' W 061°46'0 0.0
2018-Feb-18 01:28N 17°01' W 061°46'0 0.0
2018-Feb-18 01:01N 17°01' W 061°46'0 0.0
2018-Feb-18 00:28N 17°01' W 061°46'0 0.0
2018-Feb-18 00:01N 17°01' W 061°46'0 0.0
2018-Feb-17 23:31N 17°01' W 061°46'0 0.0
2018-Feb-17 23:01N 17°01' W 061°46'0 0.0
2018-Feb-17 22:31N 17°01' W 061°46'0 0.0
2018-Feb-17 22:01N 17°01' W 061°46'0 0.0
2018-Feb-17 21:31N 17°01' W 061°46'0 0.0
2018-Feb-17 21:01N 17°01' W 061°46'0 0.0
2018-Feb-17 20:31N 17°01' W 061°46'0 0.0
2018-Feb-17 20:01N 17°01' W 061°46'0 0.0
2018-Feb-17 19:31N 17°01' W 061°46'0 0.7
2018-Feb-17 19:01N 17°01' W 061°47'3 4.9
2018-Feb-17 18:30N 16°59' W 061°45'3 6.7
2018-Feb-17 18:01N 16°59' W 061°42'4 7.0
2018-Feb-17 17:31N 17°02' W 061°40'1 1.2
2018-Feb-17 16:57N 17°02' W 061°40'2 4.3
2018-Feb-17 16:28N 17°01' W 061°41'2 4.3
2018-Feb-17 16:01N 17°00' W 061°43'2 3.9
2018-Feb-17 15:31N 16°60' W 061°45'1 2.2
2018-Feb-17 15:01N 17°00' W 061°46'0 0.4
2018-Feb-17 14:30N 17°00' W 061°46'1 2.3
2018-Feb-17 14:00N 16°60' W 061°47'1 0.1
2018-Feb-16 20:42N 17°01' W 061°46'0 0.0
2018-Feb-16 14:08N 17°01' W 061°46'0 0.0
2018-Feb-16 13:49N 17°01' W 061°46'0 0.0
2018-Feb-15 22:54N 17°01' W 061°46'0 0.0
2018-Feb-15 22:30N 17°01' W 061°46'0 0.0
2018-Feb-15 21:52N 17°01' W 061°46'0 0.0
2018-Feb-15 17:00N 17°01' W 061°46'0 0.0
2018-Feb-15 15:38N 17°01' W 061°46'0 0.0
2018-Feb-15 15:29N 17°01' W 061°46'0 0.0
2018-Feb-15 14:58N 17°01' W 061°46'0 0.0
2018-Feb-14 23:11N 17°01' W 061°46'0 0.0
2018-Feb-14 22:52N 17°01' W 061°46'0 0.0
2018-Feb-14 22:29N 17°01' W 061°46'0 0.0
2018-Feb-14 21:58N 17°01' W 061°46'0 0.0
2018-Feb-14 21:29N 17°01' W 061°46'0 0.0
2018-Feb-14 21:00N 17°01' W 061°46'0 0.0
2018-Feb-14 20:30N 17°01' W 061°46'0 0.0
2018-Feb-14 20:00N 17°01' W 061°46'0 0.0
2018-Feb-14 19:30N 17°01' W 061°46'0 0.0
2018-Feb-14 19:00N 17°01' W 061°46'0 0.0
2018-Feb-14 18:30N 17°01' W 061°46'0 0.0
2018-Feb-14 18:00N 17°01' W 061°46'  
Track history (hours):
 
Tides and Currents Weather Stations Pressure Air Temp Water Temp Dewpoint Dewpoint Depression Visibility Wind Speed Wind Dir Waves Ship Positions

Jolanda

Last reported at 2018-Feb-23 21:15 UTC. Time now 2018-Jun-23 19:48 UTC.
Position N 17°01' W 061°46'.
Warning: this ship's position is months out of date.

Length 58 m; draft 2.4 m.

Type: Cargo ship. MMSI: 304011000.

Date/timePositionNaut miles runAvg speedWind from/ knotsBaromVisibWave heightAir tempDewpointWater temp
2018-Feb-23 21:15N 17°01' W 061°46'0 0.0
2018-Feb-23 21:00N 17°01' W 061°46'0 0.0
2018-Feb-23 20:30N 17°01' W 061°46'0 0.0
2018-Feb-23 20:00N 17°01' W 061°46'0 0.0
2018-Feb-23 19:30N 17°01' W 061°46'0 0.0
2018-Feb-23 19:00N 17°01' W 061°46'0 0.0
2018-Feb-23 18:30N 17°01' W 061°46'0 0.0
2018-Feb-23 18:00N 17°01' W 061°46'0 0.0
2018-Feb-23 17:30N 17°01' W 061°46'0 0.0
2018-Feb-23 17:00N 17°01' W 061°46'0 0.0
2018-Feb-23 16:30N 17°01' W 061°46'0 0.0
2018-Feb-23 16:00N 17°01' W 061°46'0 0.0
2018-Feb-23 15:12N 17°01' W 061°46'0 0.6
2018-Feb-23 15:00N 17°01' W 061°46'1 2.4
2018-Feb-23 14:30N 16°60' W 061°46'2 4.8
2018-Feb-23 14:00N 16°60' W 061°49'22 1.3
2018-Feb-22 21:49N 17°21' W 061°42'3 8.5
2018-Feb-22 21:29N 17°18' W 061°41'4 8.4
2018-Feb-22 20:59N 17°15' W 061°39'4 8.5
2018-Feb-22 20:30N 17°11' W 061°36'  
2018-Feb-20 15:06N 17°55' W 063°05'1 6.0
2018-Feb-20 14:59N 17°55' W 063°05'3 6.2
2018-Feb-20 14:27N 17°56' W 063°09'3 5.4
2018-Feb-20 13:56N 17°57' W 063°11'74 5.3
2018-Feb-19 23:55N 17°15' W 062°07'21 3.9
2018-Feb-19 18:26N 17°15' W 061°45'3 8.1
2018-Feb-19 18:00N 17°12' W 061°43'4 8.3
2018-Feb-19 17:30N 17°08' W 061°41'4 8.2
2018-Feb-19 16:59N 17°04' W 061°39'3 5.2
2018-Feb-19 16:27N 17°02' W 061°41'2 4.3
2018-Feb-19 16:00N 17°00' W 061°42'2 3.7
2018-Feb-19 15:28N 16°59' W 061°44'2 3.8
2018-Feb-19 15:01N 16°59' W 061°46'1 1.1
2018-Feb-19 14:31N 16°60' W 061°46'1 1.1
2018-Feb-19 13:57N 17°00' W 061°47'1 1.5
2018-Feb-19 13:28N 17°01' W 061°46'0 0.0
2018-Feb-19 12:58N 17°01' W 061°46'0 0.0
2018-Feb-19 12:28N 17°01' W 061°46'0 0.0
2018-Feb-18 20:12N 17°01' W 061°46'0 0.1
2018-Feb-18 20:00N 17°01' W 061°46'0 0.9
2018-Feb-18 19:30N 17°01' W 061°47'2 4.9
2018-Feb-18 19:00N 16°59' W 061°49'1 2.1
2018-Feb-18 18:30N 16°58' W 061°49'3 5.2
2018-Feb-18 18:00N 16°58' W 061°46'2 3.1
2018-Feb-18 17:30N 16°60' W 061°47'1 1.5
2018-Feb-18 16:58N 17°01' W 061°46'0 0.0
2018-Feb-18 16:28N 17°01' W 061°46'0 0.0
2018-Feb-18 13:40N 17°01' W 061°46'0 0.0
2018-Feb-18 13:28N 17°01' W 061°46'0 0.0
2018-Feb-18 12:58N 17°01' W 061°46'0 0.0
2018-Feb-18 12:28N 17°01' W 061°46'0 0.0
2018-Feb-18 11:58N 17°01' W 061°46'0 0.0
2018-Feb-18 11:28N 17°01' W 061°46'0 0.0
2018-Feb-18 10:58N 17°01' W 061°46'0 0.0
2018-Feb-18 10:28N 17°01' W 061°46'0 0.0
2018-Feb-18 09:58N 17°01' W 061°46'0 0.0
2018-Feb-18 09:25N 17°01' W 061°46'0 0.0
2018-Feb-18 08:58N 17°01' W 061°46'0 0.0
2018-Feb-18 08:28N 17°01' W 061°46'0 0.0
2018-Feb-18 07:58N 17°01' W 061°46'0 0.0
2018-Feb-18 07:28N 17°01' W 061°46'0 0.0
2018-Feb-18 06:58N 17°01' W 061°46'0 0.0
2018-Feb-18 06:28N 17°01' W 061°46'0 0.0
2018-Feb-18 05:58N 17°01' W 061°46'0 0.0
2018-Feb-18 05:28N 17°01' W 061°46'0 0.0
2018-Feb-18 04:58N 17°01' W 061°46'0 0.0
2018-Feb-18 04:28N 17°01' W 061°46'0 0.0
2018-Feb-18 03:58N 17°01' W 061°46'0 0.0
2018-Feb-18 03:28N 17°01' W 061°46'0 0.0
2018-Feb-18 02:58N 17°01' W 061°46'0 0.0
2018-Feb-18 02:28N 17°01' W 061°46'0 0.0
2018-Feb-18 01:58N 17°01' W 061°46'0 0.0
2018-Feb-18 01:28N 17°01' W 061°46'0 0.0
2018-Feb-18 01:01N 17°01' W 061°46'0 0.0
2018-Feb-18 00:28N 17°01' W 061°46'0 0.0
2018-Feb-18 00:01N 17°01' W 061°46'0 0.0
2018-Feb-17 23:31N 17°01' W 061°46'0 0.0
2018-Feb-17 23:01N 17°01' W 061°46'0 0.0
2018-Feb-17 22:31N 17°01' W 061°46'0 0.0
2018-Feb-17 22:01N 17°01' W 061°46'0 0.0
2018-Feb-17 21:31N 17°01' W 061°46'0 0.0
2018-Feb-17 21:01N 17°01' W 061°46'0 0.0
2018-Feb-17 20:31N 17°01' W 061°46'0 0.0
2018-Feb-17 20:01N 17°01' W 061°46'0 0.0
2018-Feb-17 19:31N 17°01' W 061°46'0 0.7
2018-Feb-17 19:01N 17°01' W 061°47'3 4.9
2018-Feb-17 18:30N 16°59' W 061°45'3 6.7
2018-Feb-17 18:01N 16°59' W 061°42'4 7.0
2018-Feb-17 17:31N 17°02' W 061°40'1 1.2
2018-Feb-17 16:57N 17°02' W 061°40'2 4.3
2018-Feb-17 16:28N 17°01' W 061°41'2 4.3
2018-Feb-17 16:01N 17°00' W 061°43'2 3.9
2018-Feb-17 15:31N 16°60' W 061°45'1 2.2
2018-Feb-17 15:01N 17°00' W 061°46'0 0.4
2018-Feb-17 14:30N 17°00' W 061°46'1 2.3
2018-Feb-17 14:00N 16°60' W 061°47'1 0.1
2018-Feb-16 20:42N 17°01' W 061°46'0 0.0
2018-Feb-16 14:08N 17°01' W 061°46'0 0.0
2018-Feb-16 13:49N 17°01' W 061°46'0 0.0
2018-Feb-15 22:54N 17°01' W 061°46'0 0.0
2018-Feb-15 22:30N 17°01' W 061°46'0 0.0
2018-Feb-15 21:52N 17°01' W 061°46'0 0.0
2018-Feb-15 17:00N 17°01' W 061°46'0 0.0
2018-Feb-15 15:38N 17°01' W 061°46'0 0.0
2018-Feb-15 15:29N 17°01' W 061°46'0 0.0
2018-Feb-15 14:58N 17°01' W 061°46'0 0.0
2018-Feb-14 23:11N 17°01' W 061°46'0 0.0
2018-Feb-14 22:52N 17°01' W 061°46'0 0.0
2018-Feb-14 22:29N 17°01' W 061°46'0 0.0
2018-Feb-14 21:58N 17°01' W 061°46'0 0.0
2018-Feb-14 21:29N 17°01' W 061°46'0 0.0
2018-Feb-14 21:00N 17°01' W 061°46'0 0.0
2018-Feb-14 20:30N 17°01' W 061°46'0 0.0
2018-Feb-14 20:00N 17°01' W 061°46'0 0.0
2018-Feb-14 19:30N 17°01' W 061°46'0 0.0
2018-Feb-14 19:00N 17°01' W 061°46'0 0.0
2018-Feb-14 18:30N 17°01' W 061°46'0 0.0
2018-Feb-14 18:00N 17°01' W 061°46'  

Dump ship's entire track history